createdAt,value
2023-04-21T00:02:24.991Z,68.19
2023-04-21T00:05:29.603Z,67.89
2023-04-21T00:08:36.145Z,68.84
2023-04-21T00:11:44.514Z,70.04
2023-04-21T00:14:48.753Z,69.19
2023-04-21T00:17:52.525Z,68.60
2023-04-21T00:20:57.053Z,68.67
2023-04-21T00:24:01.300Z,68.52
2023-04-21T00:27:52.506Z,67.07
2023-04-21T00:30:33.983Z,68.52
2023-04-21T00:33:39.669Z,68.27
2023-04-21T00:36:43.748Z,68.59
2023-04-21T00:39:49.151Z,68.90
2023-04-21T00:42:53.342Z,69.24
2023-04-21T00:45:57.504Z,68.41
2023-04-21T00:49:08.259Z,68.93
2023-04-21T00:52:12.459Z,68.17
2023-04-21T00:55:16.649Z,68.38
2023-04-21T00:58:20.741Z,67.91
2023-04-21T01:01:24.788Z,66.59
2023-04-21T01:04:28.834Z,66.92
2023-04-21T01:07:32.951Z,66.69
2023-04-21T01:10:36.964Z,67.92
2023-04-21T01:13:40.942Z,67.65
2023-04-21T01:16:44.809Z,67.72
2023-04-21T01:19:50.764Z,67.77
2023-04-21T01:22:54.627Z,68.71
2023-04-21T01:25:59.037Z,68.89
2023-04-21T01:29:02.743Z,68.47
2023-04-21T01:32:06.681Z,68.90
2023-04-21T01:35:12.070Z,68.97
2023-04-21T01:38:18.183Z,68.31
2023-04-21T01:41:23.517Z,67.89
2023-04-21T01:44:29.601Z,67.83
2023-04-21T01:47:33.784Z,68.13
2023-04-21T01:50:39.054Z,67.64
2023-04-21T01:53:43.218Z,66.99
2023-04-21T01:56:47.214Z,67.56
2023-04-21T01:59:51.118Z,67.54
2023-04-21T02:02:59.718Z,67.39
2023-04-21T02:06:03.584Z,68.65
2023-04-21T02:09:07.478Z,68.70
2023-04-21T02:12:11.412Z,68.59
2023-04-21T02:15:15.527Z,68.04
2023-04-21T02:18:19.626Z,67.26
2023-04-21T02:21:23.753Z,66.48
2023-04-21T02:24:27.757Z,66.05
2023-04-21T02:27:31.637Z,65.94
2023-04-21T02:30:45.993Z,67.05
2023-04-21T02:33:50.018Z,66.56
2023-04-21T02:36:53.942Z,66.97
2023-04-21T02:39:57.982Z,66.63
2023-04-21T02:43:03.287Z,67.86
2023-04-21T02:46:31.584Z,66.52
2023-04-21T02:49:35.640Z,65.94
2023-04-21T02:52:39.575Z,67.73
2023-04-21T02:55:43.615Z,66.88
2023-04-21T02:58:47.159Z,66.82
2023-04-21T03:01:51.268Z,67.18
2023-04-21T03:04:56.457Z,67.00
2023-04-21T03:08:00.849Z,67.51
2023-04-21T03:11:04.719Z,67.46
2023-04-21T03:14:09.159Z,66.51
2023-04-21T03:17:14.273Z,65.93
2023-04-21T03:20:18.485Z,66.36
2023-04-21T03:23:22.746Z,66.75
2023-04-21T03:26:32.915Z,67.47
2023-04-21T03:29:39.228Z,66.31
2023-04-21T03:32:46.736Z,65.76
2023-04-21T03:36:01.373Z,65.77
2023-04-21T03:39:18.805Z,67.18
2023-04-21T03:42:23.913Z,67.74
2023-04-21T03:45:29.024Z,66.81
2023-04-21T03:48:55.533Z,67.71
2023-04-21T03:51:57.579Z,66.76
2023-04-21T03:55:01.665Z,67.81
2023-04-21T03:58:06.033Z,66.86
2023-04-21T04:01:11.343Z,65.47
2023-04-21T04:04:15.992Z,66.93
2023-04-21T04:07:19.995Z,67.09
2023-04-21T04:10:27.410Z,66.71
2023-04-21T04:13:31.405Z,66.11
2023-04-21T04:16:35.543Z,67.16
2023-04-21T04:19:49.897Z,67.98
2023-04-21T04:22:55.219Z,67.68
2023-04-21T04:26:00.552Z,67.24
2023-04-21T04:29:04.931Z,65.83
2023-04-21T04:32:11.993Z,66.27
2023-04-21T04:35:16.164Z,66.15
2023-04-21T04:38:20.151Z,66.57
2023-04-21T04:41:23.817Z,67.38
2023-04-21T04:44:27.860Z,66.82
2023-04-21T04:47:33.253Z,66.85
2023-04-21T04:50:43.516Z,66.57
2023-04-21T04:53:58.194Z,67.16
2023-04-21T04:57:02.217Z,67.43
2023-04-21T05:00:07.429Z,67.23
2023-04-21T05:03:11.857Z,67.36
2023-04-21T05:06:17.678Z,68.29
2023-04-21T05:09:22.642Z,68.01
2023-04-21T05:12:26.574Z,67.21
2023-04-21T05:15:35.071Z,66.27
2023-04-21T05:18:39.184Z,65.83
2023-04-21T05:21:42.883Z,65.34
2023-04-21T05:24:49.726Z,65.26
2023-04-21T05:27:54.071Z,65.94
2023-04-21T05:30:58.165Z,65.77
2023-04-21T05:34:06.543Z,65.65
2023-04-21T05:37:10.839Z,65.92
2023-04-21T05:40:14.991Z,64.17
2023-04-21T05:43:20.339Z,67.68
2023-04-21T05:46:26.121Z,67.55
2023-04-21T05:50:33.393Z,66.97
2023-04-21T05:52:54.724Z,66.66
2023-04-21T05:56:00.051Z,65.28
2023-04-21T05:59:08.419Z,65.22
2023-04-21T06:02:14.685Z,64.15
2023-04-21T06:05:18.622Z,64.24
2023-04-21T06:08:22.526Z,64.80
2023-04-21T06:11:28.124Z,66.84
2023-04-21T06:14:32.432Z,65.78
2023-04-21T06:17:36.756Z,64.99
2023-04-21T06:20:43.439Z,64.83
2023-04-21T06:23:47.593Z,64.42
2023-04-21T06:26:51.255Z,63.45
2023-04-21T06:29:55.559Z,62.44
2023-04-21T06:33:04.250Z,62.63
2023-04-21T06:36:12.586Z,63.43
2023-04-21T06:39:23.523Z,62.87
2023-04-21T06:42:29.540Z,60.56
2023-04-21T06:45:34.929Z,60.88
2023-04-21T06:48:39.289Z,60.33
2023-04-21T06:51:44.814Z,59.29
2023-04-21T06:54:48.828Z,60.86
2023-04-21T06:57:52.610Z,62.92
2023-04-21T07:00:56.591Z,63.35
2023-04-21T07:04:02.553Z,63.13
2023-04-21T07:07:08.126Z,61.87
2023-04-21T07:10:12.459Z,59.46
2023-04-21T07:13:16.564Z,59.60
2023-04-21T07:16:21.637Z,58.98
2023-04-21T07:19:26.397Z,58.19
2023-04-21T07:22:32.435Z,57.55
2023-04-21T07:25:36.700Z,58.58
2023-04-21T07:28:40.581Z,57.98
2023-04-21T07:31:46.008Z,57.05
2023-04-21T07:34:52.628Z,56.94
2023-04-21T07:37:56.638Z,55.97
2023-04-21T07:41:00.597Z,58.97
2023-04-21T07:44:05.677Z,57.17
2023-04-21T07:47:09.480Z,56.96
2023-04-21T07:50:15.135Z,55.63
2023-04-21T07:53:19.168Z,56.05
2023-04-21T07:56:23.278Z,54.57
2023-04-21T07:59:28.945Z,55.38
2023-04-21T08:02:33.229Z,55.55
2023-04-21T08:05:40.884Z,55.70
2023-04-21T08:08:45.492Z,55.41
2023-04-21T08:11:52.276Z,55.17
2023-04-21T08:14:56.425Z,54.59
2023-04-21T08:18:00.691Z,55.85
2023-04-21T08:21:04.797Z,54.49
2023-04-21T08:24:10.276Z,54.08
2023-04-21T08:27:14.266Z,54.23
2023-04-21T08:30:18.376Z,54.76
2023-04-21T08:33:22.182Z,53.97
2023-04-21T08:36:29.314Z,55.39
2023-04-21T08:39:33.818Z,54.85
2023-04-21T08:42:37.768Z,54.20
2023-04-21T08:45:41.932Z,56.27
2023-04-21T08:48:45.561Z,55.06
2023-04-21T08:51:52.722Z,54.48
2023-04-21T08:54:57.887Z,54.87
2023-04-21T08:58:02.247Z,54.41
2023-04-21T09:01:06.360Z,53.83
2023-04-21T09:04:10.742Z,54.08
2023-04-21T09:07:14.759Z,53.62
2023-04-21T09:10:18.779Z,55.25
2023-04-21T09:13:25.818Z,54.73
2023-04-21T09:16:33.181Z,54.27
2023-04-21T09:19:37.264Z,53.95
2023-04-21T09:22:46.717Z,54.53
2023-04-21T09:25:50.978Z,54.76
2023-04-21T09:28:55.127Z,56.14
2023-04-21T09:31:59.014Z,56.54
2023-04-21T09:35:05.141Z,56.71
2023-04-21T09:38:09.205Z,56.19
2023-04-21T09:41:13.724Z,59.71
2023-04-21T09:44:18.170Z,60.49
2023-04-21T09:47:25.896Z,61.17
2023-04-21T09:53:37.875Z,62.08
2023-04-21T09:56:43.404Z,70.64
2023-04-21T09:59:47.688Z,69.00
2023-04-21T10:03:14.100Z,67.70
2023-04-21T10:06:16.211Z,70.66
2023-04-21T10:09:20.377Z,66.63
2023-04-21T10:12:24.588Z,61.67
2023-04-21T10:15:31.801Z,65.08
2023-04-21T10:18:36.030Z,65.59
2023-04-21T10:21:40.252Z,67.56
2023-04-21T10:24:50.878Z,64.31
2023-04-21T10:27:56.254Z,64.49
2023-04-21T10:31:10.935Z,65.34
2023-04-21T10:34:15.983Z,64.47
2023-04-21T10:37:30.144Z,64.14
2023-04-21T10:40:43.817Z,64.78
2023-04-21T10:43:50.255Z,66.02
2023-04-21T10:47:06.466Z,65.35
2023-04-21T10:50:11.591Z,69.50
2023-04-21T10:53:22.469Z,65.85
2023-04-21T10:59:44.305Z,64.86
2023-04-21T11:02:54.913Z,63.46
2023-04-21T11:05:59.001Z,65.39
2023-04-21T11:09:03.186Z,66.18
2023-04-21T11:12:12.004Z,66.37
2023-04-21T11:15:18.086Z,65.38
2023-04-21T11:18:23.630Z,62.65
2023-04-21T11:21:32.210Z,65.09
2023-04-21T11:24:40.796Z,61.75
2023-04-21T11:27:45.266Z,62.77
2023-04-21T11:30:51.144Z,62.78
2023-04-21T11:33:55.248Z,60.78
2023-04-21T11:36:59.507Z,59.14
2023-04-21T11:40:03.493Z,60.12
2023-04-21T11:43:07.616Z,60.62
2023-04-21T11:46:11.616Z,59.54
2023-04-21T11:49:15.652Z,58.98
2023-04-21T11:52:20.825Z,57.65
2023-04-21T11:55:25.167Z,56.92
2023-04-21T11:58:33.504Z,59.48
2023-04-21T12:01:37.724Z,58.31
2023-04-21T12:04:43.427Z,58.06
2023-04-21T12:07:50.008Z,54.08
2023-04-21T12:10:56.470Z,54.06
2023-04-21T12:14:00.299Z,56.44
2023-04-21T12:17:11.286Z,55.18
2023-04-21T12:20:16.626Z,52.84
2023-04-21T12:23:20.583Z,54.92
2023-04-21T12:26:30.381Z,52.79
2023-04-21T12:29:35.516Z,55.14
2023-04-21T12:32:39.697Z,54.80
2023-04-21T12:35:43.883Z,53.90
2023-04-21T12:39:02.308Z,54.37
2023-04-21T12:42:06.272Z,54.72
2023-04-21T12:45:11.602Z,54.36
2023-04-21T12:48:15.879Z,58.12
2023-04-21T12:51:25.600Z,56.79
2023-04-21T12:54:31.126Z,58.42
2023-04-21T12:57:35.667Z,59.68
2023-04-21T13:00:42.093Z,57.79
2023-04-21T13:03:46.396Z,58.36
2023-04-21T13:06:50.606Z,58.34
2023-04-21T13:09:54.171Z,59.44
2023-04-21T13:13:01.030Z,59.12
2023-04-21T13:16:06.347Z,58.08
2023-04-21T13:19:10.740Z,59.79
2023-04-21T13:22:36.947Z,60.29
2023-04-21T13:25:39.139Z,58.33
2023-04-21T13:28:43.065Z,57.50
2023-04-21T13:31:46.787Z,56.50
2023-04-21T13:34:51.248Z,57.90
2023-04-21T13:38:01.357Z,57.46
2023-04-21T13:41:05.625Z,57.30
2023-04-21T13:44:20.210Z,57.84
2023-04-21T13:47:24.678Z,56.55
2023-04-21T13:50:29.188Z,56.82
2023-04-21T13:53:33.314Z,58.44
2023-04-21T13:56:47.869Z,58.14
2023-04-21T13:59:58.054Z,58.18
2023-04-21T14:03:02.714Z,58.70
2023-04-21T14:06:07.493Z,57.35
2023-04-21T14:09:11.608Z,61.35
2023-04-21T14:12:19.781Z,60.58
2023-04-21T14:15:24.041Z,61.33
2023-04-21T14:18:32.916Z,61.00
2023-04-21T14:21:47.408Z,59.86
2023-04-21T14:24:57.606Z,58.23
2023-04-21T14:28:01.866Z,57.37
2023-04-21T14:31:06.253Z,57.31
2023-04-21T14:34:11.872Z,59.38
2023-04-21T14:37:17.137Z,57.47
2023-04-21T14:40:21.223Z,57.98
2023-04-21T14:43:26.274Z,59.16
2023-04-21T14:46:46.168Z,57.84
2023-04-21T14:49:55.476Z,56.07
2023-04-21T14:53:01.146Z,56.09
2023-04-21T14:56:08.425Z,55.78
2023-04-21T14:59:12.827Z,56.83
2023-04-21T15:02:16.874Z,57.85
2023-04-21T15:05:21.389Z,57.65
2023-04-21T15:08:28.332Z,57.88
2023-04-21T15:11:32.231Z,56.71
2023-04-21T15:14:36.200Z,56.22
2023-04-21T15:17:41.588Z,58.93
2023-04-21T15:20:58.714Z,59.82
2023-04-21T15:24:08.595Z,63.73
2023-04-21T15:27:12.468Z,63.07
2023-04-21T15:33:34.565Z,58.34
2023-04-21T15:36:38.691Z,58.50
2023-04-21T15:39:52.923Z,57.19
2023-04-21T15:42:58.438Z,55.88
2023-04-21T15:46:02.710Z,57.12
2023-04-21T15:49:07.740Z,55.34
2023-04-21T15:52:11.832Z,55.07
2023-04-21T15:55:15.758Z,57.75
2023-04-21T15:58:19.754Z,56.25
2023-04-21T16:01:38.115Z,54.34
2023-04-21T16:04:42.717Z,57.12
2023-04-21T16:07:49.197Z,56.65
2023-04-21T16:10:53.690Z,56.01
2023-04-21T16:13:58.852Z,55.93
2023-04-21T16:17:07.407Z,56.20
2023-04-21T16:20:11.695Z,55.84
2023-04-21T16:23:17.463Z,55.51
2023-04-21T16:26:23.081Z,55.34
2023-04-21T16:29:27.425Z,56.82
2023-04-21T16:32:31.485Z,57.76
2023-04-21T16:35:37.220Z,55.94
2023-04-21T16:38:41.375Z,57.79
2023-04-21T16:41:49.983Z,57.55
2023-04-21T16:44:54.645Z,58.70
2023-04-21T16:48:03.372Z,57.40
2023-04-21T16:51:07.586Z,56.61
2023-04-21T16:54:15.568Z,58.04
2023-04-21T16:57:43.259Z,58.33
2023-04-21T17:00:48.633Z,58.65
2023-04-21T17:03:52.917Z,59.55
2023-04-21T17:06:57.212Z,57.94
2023-04-21T17:10:02.012Z,60.03
2023-04-21T17:13:06.301Z,60.03
2023-04-21T17:16:10.610Z,56.70
2023-04-21T17:19:14.852Z,57.71
2023-04-21T17:22:18.977Z,58.45
2023-04-21T17:25:26.443Z,60.37
2023-04-21T17:28:31.788Z,59.60
2023-04-21T17:31:58.874Z,60.02
2023-04-21T17:35:00.878Z,59.78
2023-04-21T17:38:11.247Z,59.57
2023-04-21T17:41:15.453Z,59.94
2023-04-21T17:44:26.136Z,60.38
2023-04-21T17:47:33.403Z,60.51
2023-04-21T17:50:37.495Z,61.00
2023-04-21T17:53:53.391Z,59.70
2023-04-21T17:56:58.810Z,59.78
2023-04-21T18:00:03.129Z,59.69
2023-04-21T18:03:11.865Z,60.49
2023-04-21T18:06:17.995Z,61.14
2023-04-21T18:09:23.445Z,61.24
2023-04-21T18:12:32.267Z,60.58
2023-04-21T18:15:36.407Z,61.77
2023-04-21T18:18:44.905Z,62.36
2023-04-21T18:21:49.427Z,63.07
2023-04-21T18:24:58.186Z,65.11
2023-04-21T18:28:25.250Z,65.41
2023-04-21T18:31:44.820Z,66.14
2023-04-21T18:34:50.827Z,66.41
2023-04-21T18:37:55.050Z,68.10
2023-04-21T18:40:59.186Z,67.07
2023-04-21T18:44:02.987Z,66.08
2023-04-21T18:47:07.244Z,67.97
2023-04-21T18:50:14.484Z,69.04
2023-04-21T18:53:23.200Z,68.51
2023-04-21T18:56:28.727Z,69.31
2023-04-21T18:59:55.629Z,69.50
2023-04-21T19:02:57.677Z,70.28
2023-04-21T19:06:06.102Z,71.11
2023-04-21T19:09:10.405Z,71.42
2023-04-21T19:12:14.526Z,69.50
2023-04-21T19:15:43.664Z,71.09
2023-04-21T19:18:48.972Z,71.15
2023-04-21T19:21:53.269Z,71.54
2023-04-21T19:25:02.904Z,71.71
2023-04-21T19:28:09.079Z,69.75
2023-04-21T19:31:17.419Z,70.83
2023-04-21T19:34:25.827Z,70.26
2023-04-21T19:37:31.044Z,70.01
2023-04-21T19:40:39.732Z,71.45
2023-04-21T19:43:45.214Z,69.29
2023-04-21T19:47:00.437Z,70.46
2023-04-21T19:50:07.724Z,71.48
2023-04-21T19:53:22.388Z,70.90
2023-04-21T19:56:26.493Z,67.84
2023-04-21T19:59:35.181Z,68.40
2023-04-21T20:02:40.285Z,68.35
2023-04-21T20:05:44.132Z,67.96
2023-04-21T20:08:49.632Z,69.21
2023-04-21T20:11:55.343Z,71.69
2023-04-21T20:15:00.756Z,70.63
2023-04-21T20:18:05.068Z,71.05
2023-04-21T20:21:09.197Z,70.54
2023-04-21T20:24:14.790Z,71.32
2023-04-21T20:27:19.215Z,70.53
2023-04-21T20:30:23.708Z,69.00
2023-04-21T20:33:27.628Z,70.61
2023-04-21T20:36:31.638Z,70.93
2023-04-21T20:39:48.640Z,70.07
2023-04-21T20:42:57.055Z,70.65
2023-04-21T20:46:01.397Z,70.02
2023-04-21T20:49:09.524Z,69.01
2023-04-21T20:52:13.771Z,70.69
2023-04-21T20:55:22.748Z,69.07
2023-04-21T20:58:26.803Z,70.45
2023-04-21T21:01:30.979Z,69.11
2023-04-21T21:04:35.468Z,70.15
2023-04-21T21:07:40.506Z,72.33
2023-04-21T21:10:44.516Z,71.06
2023-04-21T21:13:48.176Z,69.78
2023-04-21T21:16:52.463Z,69.49
2023-04-21T21:19:56.405Z,68.84
2023-04-21T21:23:00.595Z,70.87
2023-04-21T21:26:04.600Z,70.61
2023-04-21T21:29:08.641Z,70.10
2023-04-21T21:32:12.628Z,68.84
2023-04-21T21:35:18.355Z,68.98
2023-04-21T21:38:23.959Z,69.01
2023-04-21T21:41:28.026Z,69.13
2023-04-21T21:44:32.087Z,69.12
2023-04-21T21:47:39.373Z,69.71
2023-04-21T21:50:45.312Z,70.27
2023-04-21T21:53:49.540Z,70.50
2023-04-21T21:56:53.289Z,71.94
2023-04-21T21:59:57.278Z,70.72
2023-04-21T22:03:02.514Z,70.64
2023-04-21T22:06:08.004Z,69.75
2023-04-21T22:09:12.294Z,69.59
2023-04-21T22:12:16.706Z,70.70
2023-04-21T22:15:20.652Z,73.53
2023-04-21T22:18:24.522Z,73.56
2023-04-21T22:21:28.692Z,72.62
2023-04-21T22:24:32.895Z,73.09
2023-04-21T22:27:36.776Z,73.81
2023-04-21T22:30:40.926Z,73.23
2023-04-21T22:33:47.605Z,71.77
2023-04-21T22:36:51.493Z,73.16
2023-04-21T22:39:55.588Z,73.66
2023-04-21T22:42:59.540Z,74.70
2023-04-21T22:46:06.783Z,73.25
2023-04-21T22:49:12.412Z,72.21
2023-04-21T22:52:16.699Z,72.44
2023-04-21T22:55:22.031Z,74.51
2023-04-21T22:58:26.184Z,74.78
2023-04-21T23:01:30.448Z,73.49
2023-04-21T23:04:34.418Z,72.15
2023-04-21T23:07:39.635Z,73.71
2023-04-21T23:10:43.789Z,73.41
2023-04-21T23:13:47.417Z,74.88
2023-04-21T23:16:51.701Z,73.60
2023-04-21T23:19:55.721Z,72.70
2023-04-21T23:23:03.823Z,72.55
2023-04-21T23:26:07.645Z,73.05
2023-04-21T23:29:11.546Z,72.75
2023-04-21T23:32:16.001Z,71.76
2023-04-21T23:35:20.476Z,74.55
2023-04-21T23:38:26.872Z,73.21
2023-04-21T23:41:31.358Z,74.17
2023-04-21T23:44:35.884Z,75.82
2023-04-21T23:47:40.156Z,73.94
2023-04-21T23:50:44.436Z,74.76
2023-04-21T23:53:48.800Z,74.79
2023-04-21T23:56:54.102Z,73.56
2023-04-21T23:59:58.421Z,76.30
